sensor_id;sensor_type;location;lat;lon;timestamp;P1;durP1;ratioP1;P2;durP2;ratioP2
8044;SDS011;4065;48.754;9.982;2022-12-07T00:02:01;18.85;;;14.65;;
8044;SDS011;4065;48.754;9.982;2022-12-07T00:05:03;22.65;;;15.95;;
8044;SDS011;4065;48.754;9.982;2022-12-07T00:08:05;22.17;;;16.17;;
8044;SDS011;4065;48.754;9.982;2022-12-07T00:11:09;22.48;;;16.23;;
8044;SDS011;4065;48.754;9.982;2022-12-07T00:14:13;24.77;;;17.45;;
8044;SDS011;4065;48.754;9.982;2022-12-07T00:17:15;20.42;;;16.08;;
8044;SDS011;4065;48.754;9.982;2022-12-07T00:20:17;24.23;;;17.40;;
8044;SDS011;4065;48.754;9.982;2022-12-07T00:23:19;23.40;;;17.73;;
8044;SDS011;4065;48.754;9.982;2022-12-07T00:26:22;23.27;;;16.58;;
8044;SDS011;4065;48.754;9.982;2022-12-07T00:29:24;23.23;;;17.08;;
8044;SDS011;4065;48.754;9.982;2022-12-07T00:32:26;23.83;;;17.40;;
8044;SDS011;4065;48.754;9.982;2022-12-07T00:35:28;23.20;;;17.13;;
8044;SDS011;4065;48.754;9.982;2022-12-07T00:38:32;28.67;;;21.52;;
8044;SDS011;4065;48.754;9.982;2022-12-07T00:41:36;23.27;;;17.75;;
8044;SDS011;4065;48.754;9.982;2022-12-07T00:44:38;22.92;;;16.95;;
8044;SDS011;4065;48.754;9.982;2022-12-07T00:47:39;27.38;;;19.58;;
8044;SDS011;4065;48.754;9.982;2022-12-07T00:50:41;24.83;;;18.45;;
8044;SDS011;4065;48.754;9.982;2022-12-07T00:53:42;28.45;;;18.85;;
8044;SDS011;4065;48.754;9.982;2022-12-07T00:56:46;27.65;;;19.08;;
8044;SDS011;4065;48.754;9.982;2022-12-07T00:59:48;27.63;;;20.35;;
8044;SDS011;4065;48.754;9.982;2022-12-07T01:02:49;25.92;;;18.15;;
8044;SDS011;4065;48.754;9.982;2022-12-07T01:05:51;25.35;;;18.42;;
8044;SDS011;4065;48.754;9.982;2022-12-07T01:08:54;26.50;;;18.25;;
8044;SDS011;4065;48.754;9.982;2022-12-07T01:11:57;33.28;;;25.08;;
8044;SDS011;4065;48.754;9.982;2022-12-07T01:14:59;27.88;;;20.33;;
8044;SDS011;4065;48.754;9.982;2022-12-07T01:18:00;27.77;;;19.35;;
8044;SDS011;4065;48.754;9.982;2022-12-07T01:21:03;26.02;;;18.10;;
8044;SDS011;4065;48.754;9.982;2022-12-07T01:24:07;27.30;;;19.83;;
8044;SDS011;4065;48.754;9.982;2022-12-07T01:27:12;23.65;;;17.83;;
8044;SDS011;4065;48.754;9.982;2022-12-07T01:30:13;29.15;;;20.30;;
8044;SDS011;4065;48.754;9.982;2022-12-07T01:33:15;25.02;;;18.25;;
8044;SDS011;4065;48.754;9.982;2022-12-07T01:36:17;26.67;;;19.17;;
8044;SDS011;4065;48.754;9.982;2022-12-07T01:39:20;26.80;;;18.80;;
8044;SDS011;4065;48.754;9.982;2022-12-07T01:42:23;30.77;;;19.60;;
8044;SDS011;4065;48.754;9.982;2022-12-07T01:48:44;29.27;;;19.88;;
8044;SDS011;4065;48.754;9.982;2022-12-07T01:51:46;26.58;;;19.05;;
8044;SDS011;4065;48.754;9.982;2022-12-07T01:54:49;26.45;;;18.83;;
8044;SDS011;4065;48.754;9.982;2022-12-07T01:57:54;25.80;;;18.63;;
8044;SDS011;4065;48.754;9.982;2022-12-07T02:00:56;24.80;;;19.05;;
8044;SDS011;4065;48.754;9.982;2022-12-07T02:03:58;28.00;;;19.67;;
8044;SDS011;4065;48.754;9.982;2022-12-07T02:07:00;28.35;;;18.85;;
8044;SDS011;4065;48.754;9.982;2022-12-07T02:10:11;26.85;;;18.60;;
8044;SDS011;4065;48.754;9.982;2022-12-07T02:13:16;23.65;;;17.45;;
8044;SDS011;4065;48.754;9.982;2022-12-07T02:16:22;20.10;;;14.00;;
8044;SDS011;4065;48.754;9.982;2022-12-07T02:23:18;16.63;;;13.75;;
8044;SDS011;4065;48.754;9.982;2022-12-07T02:30:18;19.92;;;15.75;;
8044;SDS011;4065;48.754;9.982;2022-12-07T02:33:22;19.52;;;14.68;;
8044;SDS011;4065;48.754;9.982;2022-12-07T02:36:27;20.02;;;14.63;;
8044;SDS011;4065;48.754;9.982;2022-12-07T02:39:31;20.23;;;14.73;;
8044;SDS011;4065;48.754;9.982;2022-12-07T02:42:40;18.65;;;14.13;;
8044;SDS011;4065;48.754;9.982;2022-12-07T02:45:47;20.27;;;14.63;;
8044;SDS011;4065;48.754;9.982;2022-12-07T02:48:49;19.15;;;13.75;;
8044;SDS011;4065;48.754;9.982;2022-12-07T02:51:52;21.17;;;14.23;;
8044;SDS011;4065;48.754;9.982;2022-12-07T02:54:54;20.98;;;15.45;;
8044;SDS011;4065;48.754;9.982;2022-12-07T02:58:07;20.60;;;15.15;;
8044;SDS011;4065;48.754;9.982;2022-12-07T03:01:19;19.67;;;14.80;;
8044;SDS011;4065;48.754;9.982;2022-12-07T03:04:30;19.48;;;15.20;;
8044;SDS011;4065;48.754;9.982;2022-12-07T03:07:39;20.77;;;15.90;;
8044;SDS011;4065;48.754;9.982;2022-12-07T03:10:46;20.45;;;15.20;;
8044;SDS011;4065;48.754;9.982;2022-12-07T03:13:54;20.55;;;15.48;;
8044;SDS011;4065;48.754;9.982;2022-12-07T03:17:02;20.48;;;15.50;;
8044;SDS011;4065;48.754;9.982;2022-12-07T03:20:09;20.25;;;15.07;;
8044;SDS011;4065;48.754;9.982;2022-12-07T03:23:13;23.20;;;16.48;;
8044;SDS011;4065;48.754;9.982;2022-12-07T03:26:16;22.38;;;15.68;;
8044;SDS011;4065;48.754;9.982;2022-12-07T03:29:19;22.42;;;16.17;;
8044;SDS011;4065;48.754;9.982;2022-12-07T03:32:25;22.13;;;16.55;;
8044;SDS011;4065;48.754;9.982;2022-12-07T03:35:31;24.05;;;17.48;;
8044;SDS011;4065;48.754;9.982;2022-12-07T03:38:35;23.35;;;17.75;;
8044;SDS011;4065;48.754;9.982;2022-12-07T03:41:39;25.75;;;17.15;;
8044;SDS011;4065;48.754;9.982;2022-12-07T03:44:41;22.50;;;16.92;;
8044;SDS011;4065;48.754;9.982;2022-12-07T03:47:45;21.30;;;16.10;;
8044;SDS011;4065;48.754;9.982;2022-12-07T03:50:50;20.70;;;16.00;;
8044;SDS011;4065;48.754;9.982;2022-12-07T03:53:54;23.80;;;17.58;;
8044;SDS011;4065;48.754;9.982;2022-12-07T03:56:59;25.98;;;18.88;;
8044;SDS011;4065;48.754;9.982;2022-12-07T04:00:03;21.55;;;16.80;;
8044;SDS011;4065;48.754;9.982;2022-12-07T04:03:08;19.45;;;14.63;;
8044;SDS011;4065;48.754;9.982;2022-12-07T04:06:10;18.75;;;15.18;;
8044;SDS011;4065;48.754;9.982;2022-12-07T04:09:11;21.05;;;15.63;;
8044;SDS011;4065;48.754;9.982;2022-12-07T04:12:14;18.13;;;14.25;;
8044;SDS011;4065;48.754;9.982;2022-12-07T04:15:16;20.48;;;14.57;;
8044;SDS011;4065;48.754;9.982;2022-12-07T04:18:19;23.42;;;16.02;;
8044;SDS011;4065;48.754;9.982;2022-12-07T04:21:20;22.80;;;16.67;;
8044;SDS011;4065;48.754;9.982;2022-12-07T04:24:22;24.13;;;17.63;;
8044;SDS011;4065;48.754;9.982;2022-12-07T04:27:24;24.92;;;17.77;;
8044;SDS011;4065;48.754;9.982;2022-12-07T04:30:26;22.17;;;15.85;;
8044;SDS011;4065;48.754;9.982;2022-12-07T04:33:29;18.73;;;13.82;;
8044;SDS011;4065;48.754;9.982;2022-12-07T04:36:35;20.63;;;14.13;;
8044;SDS011;4065;48.754;9.982;2022-12-07T04:39:37;21.65;;;15.20;;
8044;SDS011;4065;48.754;9.982;2022-12-07T04:42:39;22.50;;;15.48;;
8044;SDS011;4065;48.754;9.982;2022-12-07T04:45:44;22.85;;;16.52;;
8044;SDS011;4065;48.754;9.982;2022-12-07T04:48:48;20.77;;;15.25;;
8044;SDS011;4065;48.754;9.982;2022-12-07T04:51:50;22.90;;;16.75;;
8044;SDS011;4065;48.754;9.982;2022-12-07T04:54:52;25.60;;;16.20;;
8044;SDS011;4065;48.754;9.982;2022-12-07T04:57:53;22.60;;;16.58;;
8044;SDS011;4065;48.754;9.982;2022-12-07T05:00:55;20.95;;;16.10;;
8044;SDS011;4065;48.754;9.982;2022-12-07T05:03:58;21.45;;;15.85;;
8044;SDS011;4065;48.754;9.982;2022-12-07T05:07:00;22.38;;;16.15;;
8044;SDS011;4065;48.754;9.982;2022-12-07T05:10:02;26.00;;;18.77;;
8044;SDS011;4065;48.754;9.982;2022-12-07T05:13:04;22.40;;;16.95;;
8044;SDS011;4065;48.754;9.982;2022-12-07T05:16:05;23.02;;;16.83;;
8044;SDS011;4065;48.754;9.982;2022-12-07T05:19:09;20.45;;;15.13;;
8044;SDS011;4065;48.754;9.982;2022-12-07T05:22:11;21.05;;;15.00;;
8044;SDS011;4065;48.754;9.982;2022-12-07T05:25:15;22.63;;;15.05;;
8044;SDS011;4065;48.754;9.982;2022-12-07T05:28:17;24.38;;;17.35;;
8044;SDS011;4065;48.754;9.982;2022-12-07T05:31:18;23.30;;;16.60;;
8044;SDS011;4065;48.754;9.982;2022-12-07T05:34:21;26.60;;;18.50;;
8044;SDS011;4065;48.754;9.982;2022-12-07T05:37:23;27.17;;;18.83;;
8044;SDS011;4065;48.754;9.982;2022-12-07T05:40:25;21.40;;;15.88;;
8044;SDS011;4065;48.754;9.982;2022-12-07T05:43:26;28.10;;;19.35;;
8044;SDS011;4065;48.754;9.982;2022-12-07T05:46:28;24.08;;;17.00;;
8044;SDS011;4065;48.754;9.982;2022-12-07T05:49:31;26.23;;;17.90;;
8044;SDS011;4065;48.754;9.982;2022-12-07T05:52:32;25.48;;;17.33;;
8044;SDS011;4065;48.754;9.982;2022-12-07T05:55:34;23.05;;;16.67;;
8044;SDS011;4065;48.754;9.982;2022-12-07T05:58:36;23.80;;;17.02;;
8044;SDS011;4065;48.754;9.982;2022-12-07T06:01:55;25.40;;;16.75;;
8044;SDS011;4065;48.754;9.982;2022-12-07T06:04:59;23.20;;;17.25;;
8044;SDS011;4065;48.754;9.982;2022-12-07T06:08:01;24.20;;;16.88;;
8044;SDS011;4065;48.754;9.982;2022-12-07T06:11:02;26.00;;;17.48;;
8044;SDS011;4065;48.754;9.982;2022-12-07T06:14:21;27.70;;;17.48;;
8044;SDS011;4065;48.754;9.982;2022-12-07T06:17:23;24.70;;;17.02;;
8044;SDS011;4065;48.754;9.982;2022-12-07T06:20:26;25.77;;;16.95;;
8044;SDS011;4065;48.754;9.982;2022-12-07T06:23:31;24.13;;;17.95;;
8044;SDS011;4065;48.754;9.982;2022-12-07T06:26:33;27.50;;;18.45;;
8044;SDS011;4065;48.754;9.982;2022-12-07T06:29:34;27.83;;;17.58;;
8044;SDS011;4065;48.754;9.982;2022-12-07T06:32:36;24.55;;;17.90;;
8044;SDS011;4065;48.754;9.982;2022-12-07T06:35:39;26.52;;;17.55;;
8044;SDS011;4065;48.754;9.982;2022-12-07T06:38:41;22.77;;;15.35;;
8044;SDS011;4065;48.754;9.982;2022-12-07T06:41:43;24.58;;;16.48;;
8044;SDS011;4065;48.754;9.982;2022-12-07T06:44:44;25.08;;;17.35;;
8044;SDS011;4065;48.754;9.982;2022-12-07T06:47:46;24.42;;;16.80;;
8044;SDS011;4065;48.754;9.982;2022-12-07T06:50:49;20.42;;;13.80;;
8044;SDS011;4065;48.754;9.982;2022-12-07T06:53:51;20.63;;;14.25;;
8044;SDS011;4065;48.754;9.982;2022-12-07T06:56:52;21.58;;;14.25;;
8044;SDS011;4065;48.754;9.982;2022-12-07T06:59:54;22.75;;;15.73;;
8044;SDS011;4065;48.754;9.982;2022-12-07T07:02:55;21.70;;;15.35;;
8044;SDS011;4065;48.754;9.982;2022-12-07T07:05:58;23.75;;;16.00;;
8044;SDS011;4065;48.754;9.982;2022-12-07T07:09:00;24.85;;;16.73;;
8044;SDS011;4065;48.754;9.982;2022-12-07T07:12:02;23.27;;;16.50;;
8044;SDS011;4065;48.754;9.982;2022-12-07T07:15:04;22.45;;;14.60;;
8044;SDS011;4065;48.754;9.982;2022-12-07T07:18:06;24.00;;;15.82;;
8044;SDS011;4065;48.754;9.982;2022-12-07T07:21:09;23.48;;;15.68;;
8044;SDS011;4065;48.754;9.982;2022-12-07T07:24:12;27.50;;;17.08;;
8044;SDS011;4065;48.754;9.982;2022-12-07T07:27:16;36.35;;;20.02;;
8044;SDS011;4065;48.754;9.982;2022-12-07T07:30:18;23.80;;;15.80;;
8044;SDS011;4065;48.754;9.982;2022-12-07T07:33:20;31.13;;;18.63;;
8044;SDS011;4065;48.754;9.982;2022-12-07T07:36:23;25.73;;;16.67;;
8044;SDS011;4065;48.754;9.982;2022-12-07T07:39:24;29.55;;;17.95;;
8044;SDS011;4065;48.754;9.982;2022-12-07T07:42:26;28.88;;;17.77;;
8044;SDS011;4065;48.754;9.982;2022-12-07T07:45:28;36.97;;;19.38;;
8044;SDS011;4065;48.754;9.982;2022-12-07T07:48:30;45.88;;;21.20;;
8044;SDS011;4065;48.754;9.982;2022-12-07T07:51:33;32.85;;;18.40;;
8044;SDS011;4065;48.754;9.982;2022-12-07T07:54:35;40.72;;;21.15;;
8044;SDS011;4065;48.754;9.982;2022-12-07T07:57:37;36.40;;;18.98;;
8044;SDS011;4065;48.754;9.982;2022-12-07T08:00:41;41.85;;;19.00;;
8044;SDS011;4065;48.754;9.982;2022-12-07T08:03:43;27.77;;;15.82;;
8044;SDS011;4065;48.754;9.982;2022-12-07T08:06:46;38.53;;;20.33;;
8044;SDS011;4065;48.754;9.982;2022-12-07T08:09:49;30.70;;;17.38;;
8044;SDS011;4065;48.754;9.982;2022-12-07T08:12:52;28.35;;;15.73;;
8044;SDS011;4065;48.754;9.982;2022-12-07T08:16:13;29.42;;;15.88;;
8044;SDS011;4065;48.754;9.982;2022-12-07T08:19:15;27.85;;;14.65;;
8044;SDS011;4065;48.754;9.982;2022-12-07T08:22:20;25.42;;;16.80;;
8044;SDS011;4065;48.754;9.982;2022-12-07T08:25:22;17.75;;;12.63;;
8044;SDS011;4065;48.754;9.982;2022-12-07T08:28:24;13.85;;;10.70;;
8044;SDS011;4065;48.754;9.982;2022-12-07T08:31:33;15.80;;;11.05;;
8044;SDS011;4065;48.754;9.982;2022-12-07T08:34:35;15.43;;;11.13;;
8044;SDS011;4065;48.754;9.982;2022-12-07T08:37:40;12.45;;;9.32;;
8044;SDS011;4065;48.754;9.982;2022-12-07T08:40:42;10.60;;;8.57;;
8044;SDS011;4065;48.754;9.982;2022-12-07T08:43:44;52.40;;;32.45;;
8044;SDS011;4065;48.754;9.982;2022-12-07T08:46:46;29.15;;;20.77;;
8044;SDS011;4065;48.754;9.982;2022-12-07T08:49:52;15.48;;;12.55;;
8044;SDS011;4065;48.754;9.982;2022-12-07T08:52:56;12.05;;;9.77;;
8044;SDS011;4065;48.754;9.982;2022-12-07T08:56:06;10.23;;;8.52;;
8044;SDS011;4065;48.754;9.982;2022-12-07T08:59:14;9.45;;;8.45;;
8044;SDS011;4065;48.754;9.982;2022-12-07T09:02:16;10.18;;;8.63;;
8044;SDS011;4065;48.754;9.982;2022-12-07T09:05:18;10.27;;;9.10;;
8044;SDS011;4065;48.754;9.982;2022-12-07T09:08:21;8.88;;;7.97;;
8044;SDS011;4065;48.754;9.982;2022-12-07T09:11:24;10.10;;;8.10;;
8044;SDS011;4065;48.754;9.982;2022-12-07T09:14:25;8.65;;;7.78;;
8044;SDS011;4065;48.754;9.982;2022-12-07T09:17:27;10.25;;;9.07;;
8044;SDS011;4065;48.754;9.982;2022-12-07T09:20:33;10.65;;;9.32;;
8044;SDS011;4065;48.754;9.982;2022-12-07T09:23:36;10.90;;;8.48;;
8044;SDS011;4065;48.754;9.982;2022-12-07T09:26:38;9.13;;;7.65;;
8044;SDS011;4065;48.754;9.982;2022-12-07T09:29:40;9.93;;;8.63;;
8044;SDS011;4065;48.754;9.982;2022-12-07T09:32:42;8.25;;;7.45;;
8044;SDS011;4065;48.754;9.982;2022-12-07T09:35:44;11.90;;;9.30;;
8044;SDS011;4065;48.754;9.982;2022-12-07T09:38:47;11.27;;;8.68;;
8044;SDS011;4065;48.754;9.982;2022-12-07T09:41:49;10.95;;;9.07;;
8044;SDS011;4065;48.754;9.982;2022-12-07T09:44:51;10.30;;;9.02;;
8044;SDS011;4065;48.754;9.982;2022-12-07T09:47:53;10.40;;;8.68;;
8044;SDS011;4065;48.754;9.982;2022-12-07T09:50:57;11.57;;;9.38;;
8044;SDS011;4065;48.754;9.982;2022-12-07T09:54:02;12.18;;;9.60;;
8044;SDS011;4065;48.754;9.982;2022-12-07T09:57:04;11.05;;;8.60;;
8044;SDS011;4065;48.754;9.982;2022-12-07T10:00:07;10.30;;;7.88;;
8044;SDS011;4065;48.754;9.982;2022-12-07T10:03:13;11.80;;;8.93;;
8044;SDS011;4065;48.754;9.982;2022-12-07T10:06:15;11.23;;;8.60;;
8044;SDS011;4065;48.754;9.982;2022-12-07T10:09:20;11.68;;;9.68;;
8044;SDS011;4065;48.754;9.982;2022-12-07T10:12:22;11.05;;;8.45;;
8044;SDS011;4065;48.754;9.982;2022-12-07T10:15:43;11.43;;;8.50;;
8044;SDS011;4065;48.754;9.982;2022-12-07T10:18:47;10.95;;;8.48;;
8044;SDS011;4065;48.754;9.982;2022-12-07T10:22:02;10.13;;;8.45;;
8044;SDS011;4065;48.754;9.982;2022-12-07T10:25:16;9.75;;;8.38;;
8044;SDS011;4065;48.754;9.982;2022-12-07T10:28:20;9.65;;;8.60;;
8044;SDS011;4065;48.754;9.982;2022-12-07T10:31:23;8.25;;;7.25;;
8044;SDS011;4065;48.754;9.982;2022-12-07T10:34:25;9.98;;;8.07;;
8044;SDS011;4065;48.754;9.982;2022-12-07T10:37:29;10.98;;;9.13;;
8044;SDS011;4065;48.754;9.982;2022-12-07T10:40:33;8.77;;;7.50;;
8044;SDS011;4065;48.754;9.982;2022-12-07T10:43:35;9.55;;;8.15;;
8044;SDS011;4065;48.754;9.982;2022-12-07T10:46:41;9.75;;;8.38;;
8044;SDS011;4065;48.754;9.982;2022-12-07T10:49:55;10.60;;;8.15;;
8044;SDS011;4065;48.754;9.982;2022-12-07T10:53:20;36.05;;;18.25;;
8044;SDS011;4065;48.754;9.982;2022-12-07T10:56:35;11.18;;;8.93;;
8044;SDS011;4065;48.754;9.982;2022-12-07T11:06:34;11.25;;;9.85;;
8044;SDS011;4065;48.754;9.982;2022-12-07T11:09:45;11.73;;;8.82;;
8044;SDS011;4065;48.754;9.982;2022-12-07T11:16:30;10.05;;;8.48;;
8044;SDS011;4065;48.754;9.982;2022-12-07T11:19:49;11.02;;;8.88;;
8044;SDS011;4065;48.754;9.982;2022-12-07T11:22:58;10.07;;;8.75;;
8044;SDS011;4065;48.754;9.982;2022-12-07T11:26:04;11.30;;;9.45;;
8044;SDS011;4065;48.754;9.982;2022-12-07T11:29:19;10.13;;;9.02;;
8044;SDS011;4065;48.754;9.982;2022-12-07T11:32:33;12.95;;;9.52;;
8044;SDS011;4065;48.754;9.982;2022-12-07T11:35:48;11.15;;;9.25;;
8044;SDS011;4065;48.754;9.982;2022-12-07T11:39:01;11.57;;;9.65;;
8044;SDS011;4065;48.754;9.982;2022-12-07T11:42:06;12.63;;;9.38;;
8044;SDS011;4065;48.754;9.982;2022-12-07T11:45:20;13.02;;;8.82;;
8044;SDS011;4065;48.754;9.982;2022-12-07T11:48:24;11.30;;;9.77;;
8044;SDS011;4065;48.754;9.982;2022-12-07T11:51:32;14.20;;;11.45;;
8044;SDS011;4065;48.754;9.982;2022-12-07T11:54:36;13.25;;;9.13;;
8044;SDS011;4065;48.754;9.982;2022-12-07T11:57:42;11.23;;;9.10;;
8044;SDS011;4065;48.754;9.982;2022-12-07T12:00:47;13.35;;;11.05;;
8044;SDS011;4065;48.754;9.982;2022-12-07T12:03:50;12.35;;;9.90;;
8044;SDS011;4065;48.754;9.982;2022-12-07T12:06:55;12.70;;;10.40;;
8044;SDS011;4065;48.754;9.982;2022-12-07T12:09:58;15.63;;;10.30;;
8044;SDS011;4065;48.754;9.982;2022-12-07T12:13:06;10.82;;;9.70;;
8044;SDS011;4065;48.754;9.982;2022-12-07T12:16:43;12.70;;;9.45;;
8044;SDS011;4065;48.754;9.982;2022-12-07T12:20:00;13.52;;;11.10;;
8044;SDS011;4065;48.754;9.982;2022-12-07T12:23:05;13.43;;;10.50;;
8044;SDS011;4065;48.754;9.982;2022-12-07T12:26:14;12.70;;;10.77;;
8044;SDS011;4065;48.754;9.982;2022-12-07T12:29:19;11.23;;;10.02;;
8044;SDS011;4065;48.754;9.982;2022-12-07T12:32:30;15.85;;;11.57;;
8044;SDS011;4065;48.754;9.982;2022-12-07T12:35:37;13.55;;;10.52;;
8044;SDS011;4065;48.754;9.982;2022-12-07T12:38:47;13.70;;;10.57;;
8044;SDS011;4065;48.754;9.982;2022-12-07T12:41:53;13.43;;;10.70;;
8044;SDS011;4065;48.754;9.982;2022-12-07T12:45:17;12.05;;;10.18;;
8044;SDS011;4065;48.754;9.982;2022-12-07T12:48:31;13.23;;;10.68;;
8044;SDS011;4065;48.754;9.982;2022-12-07T12:51:49;15.32;;;12.23;;
8044;SDS011;4065;48.754;9.982;2022-12-07T12:54:57;12.88;;;10.93;;
8044;SDS011;4065;48.754;9.982;2022-12-07T13:01:40;13.73;;;11.25;;
8044;SDS011;4065;48.754;9.982;2022-12-07T13:07:56;14.52;;;12.55;;
8044;SDS011;4065;48.754;9.982;2022-12-07T13:14:35;15.15;;;11.15;;
8044;SDS011;4065;48.754;9.982;2022-12-07T13:18:01;13.43;;;10.27;;
8044;SDS011;4065;48.754;9.982;2022-12-07T13:21:39;11.35;;;9.02;;
8044;SDS011;4065;48.754;9.982;2022-12-07T13:24:46;11.57;;;9.60;;
8044;SDS011;4065;48.754;9.982;2022-12-07T13:27:52;13.05;;;11.23;;
8044;SDS011;4065;48.754;9.982;2022-12-07T13:31:03;11.65;;;9.32;;
8044;SDS011;4065;48.754;9.982;2022-12-07T13:34:27;12.75;;;9.55;;
8044;SDS011;4065;48.754;9.982;2022-12-07T13:37:31;10.43;;;9.10;;
8044;SDS011;4065;48.754;9.982;2022-12-07T13:40:34;14.25;;;9.30;;
8044;SDS011;4065;48.754;9.982;2022-12-07T13:43:42;12.57;;;9.32;;
8044;SDS011;4065;48.754;9.982;2022-12-07T13:46:47;16.92;;;13.15;;
8044;SDS011;4065;48.754;9.982;2022-12-07T13:49:54;15.43;;;11.48;;
8044;SDS011;4065;48.754;9.982;2022-12-07T13:52:58;13.02;;;10.32;;
8044;SDS011;4065;48.754;9.982;2022-12-07T13:56:01;13.90;;;9.65;;
8044;SDS011;4065;48.754;9.982;2022-12-07T13:59:03;12.00;;;9.07;;
8044;SDS011;4065;48.754;9.982;2022-12-07T14:02:16;12.25;;;9.73;;
8044;SDS011;4065;48.754;9.982;2022-12-07T14:05:25;12.32;;;9.65;;
8044;SDS011;4065;48.754;9.982;2022-12-07T14:08:29;12.88;;;9.55;;
8044;SDS011;4065;48.754;9.982;2022-12-07T14:11:31;11.48;;;9.88;;
8044;SDS011;4065;48.754;9.982;2022-12-07T14:14:33;13.88;;;9.68;;
8044;SDS011;4065;48.754;9.982;2022-12-07T14:17:35;12.73;;;10.30;;
8044;SDS011;4065;48.754;9.982;2022-12-07T14:20:37;12.25;;;9.43;;
8044;SDS011;4065;48.754;9.982;2022-12-07T14:23:45;10.80;;;9.23;;
8044;SDS011;4065;48.754;9.982;2022-12-07T14:27:14;14.80;;;11.18;;
8044;SDS011;4065;48.754;9.982;2022-12-07T14:30:19;14.82;;;11.75;;
8044;SDS011;4065;48.754;9.982;2022-12-07T14:33:25;17.25;;;11.35;;
8044;SDS011;4065;48.754;9.982;2022-12-07T14:36:44;13.07;;;10.85;;
8044;SDS011;4065;48.754;9.982;2022-12-07T14:39:46;22.40;;;15.38;;
8044;SDS011;4065;48.754;9.982;2022-12-07T14:42:49;14.45;;;11.82;;
8044;SDS011;4065;48.754;9.982;2022-12-07T14:45:52;16.05;;;12.57;;
8044;SDS011;4065;48.754;9.982;2022-12-07T14:48:54;18.60;;;15.32;;
8044;SDS011;4065;48.754;9.982;2022-12-07T14:52:04;45.67;;;26.23;;
8044;SDS011;4065;48.754;9.982;2022-12-07T14:55:11;17.40;;;13.80;;
8044;SDS011;4065;48.754;9.982;2022-12-07T14:58:15;24.98;;;19.73;;
8044;SDS011;4065;48.754;9.982;2022-12-07T15:01:17;28.58;;;22.83;;
8044;SDS011;4065;48.754;9.982;2022-12-07T15:04:19;19.55;;;14.77;;
8044;SDS011;4065;48.754;9.982;2022-12-07T15:07:21;19.17;;;13.88;;
8044;SDS011;4065;48.754;9.982;2022-12-07T15:10:26;18.17;;;12.23;;
8044;SDS011;4065;48.754;9.982;2022-12-07T15:13:30;18.23;;;14.15;;
8044;SDS011;4065;48.754;9.982;2022-12-07T15:16:49;21.48;;;15.38;;
8044;SDS011;4065;48.754;9.982;2022-12-07T15:19:51;16.85;;;14.30;;
8044;SDS011;4065;48.754;9.982;2022-12-07T15:22:55;21.17;;;15.23;;
8044;SDS011;4065;48.754;9.982;2022-12-07T15:25:58;17.40;;;14.18;;
8044;SDS011;4065;48.754;9.982;2022-12-07T15:29:00;20.98;;;15.85;;
8044;SDS011;4065;48.754;9.982;2022-12-07T15:32:01;25.60;;;16.30;;
8044;SDS011;4065;48.754;9.982;2022-12-07T15:35:06;22.42;;;15.18;;
8044;SDS011;4065;48.754;9.982;2022-12-07T15:38:08;25.38;;;17.42;;
8044;SDS011;4065;48.754;9.982;2022-12-07T15:41:11;18.02;;;14.30;;
8044;SDS011;4065;48.754;9.982;2022-12-07T15:44:13;15.55;;;12.90;;
8044;SDS011;4065;48.754;9.982;2022-12-07T15:47:33;19.63;;;15.63;;
8044;SDS011;4065;48.754;9.982;2022-12-07T15:50:36;17.25;;;13.75;;
8044;SDS011;4065;48.754;9.982;2022-12-07T15:53:37;18.58;;;14.88;;
8044;SDS011;4065;48.754;9.982;2022-12-07T15:56:41;18.23;;;14.27;;
8044;SDS011;4065;48.754;9.982;2022-12-07T15:59:43;22.38;;;15.90;;
8044;SDS011;4065;48.754;9.982;2022-12-07T16:02:47;18.90;;;14.15;;
8044;SDS011;4065;48.754;9.982;2022-12-07T16:05:49;22.85;;;14.07;;
8044;SDS011;4065;48.754;9.982;2022-12-07T16:08:53;19.52;;;15.70;;
8044;SDS011;4065;48.754;9.982;2022-12-07T16:11:56;18.38;;;15.40;;
8044;SDS011;4065;48.754;9.982;2022-12-07T16:14:58;23.00;;;16.00;;
8044;SDS011;4065;48.754;9.982;2022-12-07T16:18:00;15.50;;;13.60;;
8044;SDS011;4065;48.754;9.982;2022-12-07T16:21:02;15.18;;;12.48;;
8044;SDS011;4065;48.754;9.982;2022-12-07T16:24:04;19.70;;;15.35;;
8044;SDS011;4065;48.754;9.982;2022-12-07T16:27:08;20.75;;;15.80;;
8044;SDS011;4065;48.754;9.982;2022-12-07T16:30:11;17.58;;;14.13;;
8044;SDS011;4065;48.754;9.982;2022-12-07T16:33:13;19.48;;;13.38;;
8044;SDS011;4065;48.754;9.982;2022-12-07T16:36:15;16.88;;;13.02;;
8044;SDS011;4065;48.754;9.982;2022-12-07T16:39:17;17.88;;;12.60;;
8044;SDS011;4065;48.754;9.982;2022-12-07T16:42:20;15.38;;;12.18;;
8044;SDS011;4065;48.754;9.982;2022-12-07T16:45:22;30.15;;;18.88;;
8044;SDS011;4065;48.754;9.982;2022-12-07T16:48:24;18.75;;;15.07;;
8044;SDS011;4065;48.754;9.982;2022-12-07T16:51:26;18.35;;;14.82;;
8044;SDS011;4065;48.754;9.982;2022-12-07T16:54:28;23.33;;;18.27;;
8044;SDS011;4065;48.754;9.982;2022-12-07T16:57:33;13.77;;;11.05;;
8044;SDS011;4065;48.754;9.982;2022-12-07T17:00:35;15.82;;;13.15;;
8044;SDS011;4065;48.754;9.982;2022-12-07T17:03:38;16.73;;;12.52;;
8044;SDS011;4065;48.754;9.982;2022-12-07T17:06:39;17.83;;;13.05;;
8044;SDS011;4065;48.754;9.982;2022-12-07T17:09:41;18.08;;;14.15;;
8044;SDS011;4065;48.754;9.982;2022-12-07T17:12:44;17.02;;;13.88;;
8044;SDS011;4065;48.754;9.982;2022-12-07T17:15:53;18.40;;;12.98;;
8044;SDS011;4065;48.754;9.982;2022-12-07T17:18:55;20.58;;;14.00;;
8044;SDS011;4065;48.754;9.982;2022-12-07T17:21:57;19.67;;;13.63;;
8044;SDS011;4065;48.754;9.982;2022-12-07T17:24:58;21.55;;;14.18;;
8044;SDS011;4065;48.754;9.982;2022-12-07T17:28:01;20.48;;;16.00;;
8044;SDS011;4065;48.754;9.982;2022-12-07T17:31:04;21.58;;;14.88;;
8044;SDS011;4065;48.754;9.982;2022-12-07T17:34:08;21.90;;;15.60;;
8044;SDS011;4065;48.754;9.982;2022-12-07T17:37:11;19.17;;;14.82;;
8044;SDS011;4065;48.754;9.982;2022-12-07T17:40:13;19.35;;;14.60;;
8044;SDS011;4065;48.754;9.982;2022-12-07T17:43:16;23.25;;;15.35;;
8044;SDS011;4065;48.754;9.982;2022-12-07T17:46:18;18.65;;;14.18;;
8044;SDS011;4065;48.754;9.982;2022-12-07T17:49:20;20.35;;;15.10;;
8044;SDS011;4065;48.754;9.982;2022-12-07T17:52:22;25.45;;;18.00;;
8044;SDS011;4065;48.754;9.982;2022-12-07T17:55:41;22.50;;;17.27;;
8044;SDS011;4065;48.754;9.982;2022-12-07T17:58:44;21.75;;;15.00;;
8044;SDS011;4065;48.754;9.982;2022-12-07T18:01:45;29.60;;;20.08;;
8044;SDS011;4065;48.754;9.982;2022-12-07T18:04:47;34.50;;;25.58;;
8044;SDS011;4065;48.754;9.982;2022-12-07T18:07:49;38.50;;;26.70;;
8044;SDS011;4065;48.754;9.982;2022-12-07T18:10:56;67.75;;;43.70;;
8044;SDS011;4065;48.754;9.982;2022-12-07T18:14:00;26.85;;;19.52;;
8044;SDS011;4065;48.754;9.982;2022-12-07T18:17:01;65.65;;;44.17;;
8044;SDS011;4065;48.754;9.982;2022-12-07T18:20:04;62.85;;;44.05;;
8044;SDS011;4065;48.754;9.982;2022-12-07T18:23:07;44.80;;;30.13;;
8044;SDS011;4065;48.754;9.982;2022-12-07T18:26:08;36.97;;;25.23;;
8044;SDS011;4065;48.754;9.982;2022-12-07T18:29:13;41.13;;;26.58;;
8044;SDS011;4065;48.754;9.982;2022-12-07T18:32:16;36.15;;;25.05;;
8044;SDS011;4065;48.754;9.982;2022-12-07T18:35:17;35.88;;;25.30;;
8044;SDS011;4065;48.754;9.982;2022-12-07T18:38:19;45.75;;;31.25;;
8044;SDS011;4065;48.754;9.982;2022-12-07T18:41:21;29.88;;;22.45;;
8044;SDS011;4065;48.754;9.982;2022-12-07T18:44:24;34.95;;;28.40;;
8044;SDS011;4065;48.754;9.982;2022-12-07T18:47:26;31.30;;;23.50;;
8044;SDS011;4065;48.754;9.982;2022-12-07T18:50:27;28.75;;;20.70;;
8044;SDS011;4065;48.754;9.982;2022-12-07T18:53:29;27.35;;;21.05;;
8044;SDS011;4065;48.754;9.982;2022-12-07T18:56:31;29.95;;;22.58;;
8044;SDS011;4065;48.754;9.982;2022-12-07T18:59:34;30.35;;;19.52;;
8044;SDS011;4065;48.754;9.982;2022-12-07T19:02:48;30.02;;;21.35;;
8044;SDS011;4065;48.754;9.982;2022-12-07T19:05:50;22.70;;;16.55;;
8044;SDS011;4065;48.754;9.982;2022-12-07T19:08:53;20.00;;;14.40;;